sensor_id;sensor_type;location;lat;lon;timestamp;pressure;altitude;pressure_sealevel;temperature;humidity
18755;BME280;35061;47.664;9.166;2024-03-23T00:53:18;101054.13;;;9.68;77.10
18755;BME280;35061;47.664;9.166;2024-03-23T00:55:44;101060.47;;;9.62;77.10
18755;BME280;35061;47.664;9.166;2024-03-23T00:58:10;101052.55;;;9.57;77.37
18755;BME280;35061;47.664;9.166;2024-03-23T01:00:36;101060.80;;;9.55;77.70
18755;BME280;35061;47.664;9.166;2024-03-23T01:03:02;101053.18;;;9.52;77.66
18755;BME280;35061;47.664;9.166;2024-03-23T01:05:27;101050.17;;;9.46;77.83
18755;BME280;35061;47.664;9.166;2024-03-23T01:07:53;101046.41;;;9.40;78.01
18755;BME280;35061;47.664;9.166;2024-03-23T01:10:19;101049.42;;;9.37;78.20
18755;BME280;35061;47.664;9.166;2024-03-23T01:12:45;101047.20;;;9.31;78.29
18755;BME280;35061;47.664;9.166;2024-03-23T01:15:11;101043.40;;;9.25;78.36
18755;BME280;35061;47.664;9.166;2024-03-23T01:17:37;101045.62;;;9.21;78.62
18755;BME280;35061;47.664;9.166;2024-03-23T01:20:03;101042.91;;;9.17;78.77
18755;BME280;35061;47.664;9.166;2024-03-23T01:22:29;101042.62;;;9.15;78.74
18755;BME280;35061;47.664;9.166;2024-03-23T01:24:55;101044.05;;;9.11;79.25
18755;BME280;35061;47.664;9.166;2024-03-23T01:27:21;101037.71;;;9.06;79.40
18755;BME280;35061;47.664;9.166;2024-03-23T01:29:47;101037.88;;;9.03;80.01
18755;BME280;35061;47.664;9.166;2024-03-23T01:32:13;101035.00;;;9.03;79.94
18755;BME280;35061;47.664;9.166;2024-03-23T01:34:38;101029.77;;;9.01;80.23
18755;BME280;35061;47.664;9.166;2024-03-23T01:37:04;101029.47;;;8.99;80.13
18755;BME280;35061;47.664;9.166;2024-03-23T01:39:30;101018.84;;;9.00;80.35
18755;BME280;35061;47.664;9.166;2024-03-23T01:41:56;101023.75;;;8.99;80.36
18755;BME280;35061;47.664;9.166;2024-03-23T01:44:22;101023.29;;;9.01;80.45
18755;BME280;35061;47.664;9.166;2024-03-23T01:46:48;101015.97;;;9.00;80.73
18755;BME280;35061;47.664;9.166;2024-03-23T01:49:14;101019.14;;;9.02;80.61
18755;BME280;35061;47.664;9.166;2024-03-23T01:51:41;101012.63;;;9.01;80.84
18755;BME280;35061;47.664;9.166;2024-03-23T01:54:07;101005.17;;;9.04;80.96
18755;BME280;35061;47.664;9.166;2024-03-23T01:56:33;100996.61;;;9.04;81.02
18755;BME280;35061;47.664;9.166;2024-03-23T01:59:03;100993.73;;;9.04;81.13
18755;BME280;35061;47.664;9.166;2024-03-23T02:01:29;100990.10;;;9.03;81.49
18755;BME280;35061;47.664;9.166;2024-03-23T02:03:55;100992.00;;;9.06;81.64
18755;BME280;35061;47.664;9.166;2024-03-23T02:06:21;100976.92;;;9.06;81.56
18755;BME280;35061;47.664;9.166;2024-03-23T02:08:48;100974.38;;;9.08;81.96
18755;BME280;35061;47.664;9.166;2024-03-23T02:11:14;100969.47;;;9.08;82.20
18755;BME280;35061;47.664;9.166;2024-03-23T02:13:40;100969.76;;;9.11;82.24
18755;BME280;35061;47.664;9.166;2024-03-23T02:16:06;100967.70;;;9.11;82.69
18755;BME280;35061;47.664;9.166;2024-03-23T02:18:34;100965.64;;;9.12;82.41
18755;BME280;35061;47.664;9.166;2024-03-23T02:21:01;100961.20;;;9.11;82.94
18755;BME280;35061;47.664;9.166;2024-03-23T02:23:26;100950.73;;;9.07;82.92
18755;BME280;35061;47.664;9.166;2024-03-23T02:25:52;100951.84;;;9.10;83.44
18755;BME280;35061;47.664;9.166;2024-03-23T02:28:21;100950.44;;;9.05;83.48
18755;BME280;35061;47.664;9.166;2024-03-23T02:30:51;100951.19;;;9.06;84.29
18755;BME280;35061;47.664;9.166;2024-03-23T02:33:17;100946.28;;;9.06;84.56
18755;BME280;35061;47.664;9.166;2024-03-23T02:35:44;100936.44;;;9.07;84.52
18755;BME280;35061;47.664;9.166;2024-03-23T02:38:10;100933.27;;;9.05;84.48
18755;BME280;35061;47.664;9.166;2024-03-23T02:40:36;100920.29;;;9.04;84.65
18755;BME280;35061;47.664;9.166;2024-03-23T02:43:05;100911.20;;;9.06;84.70
18755;BME280;35061;47.664;9.166;2024-03-23T02:45:31;100901.68;;;9.09;84.93
18755;BME280;35061;47.664;9.166;2024-03-23T02:47:56;100906.12;;;9.10;84.79
18755;BME280;35061;47.664;9.166;2024-03-23T02:50:22;100896.58;;;9.13;84.88
18755;BME280;35061;47.664;9.166;2024-03-23T02:52:48;100887.20;;;9.13;84.83
18755;BME280;35061;47.664;9.166;2024-03-23T02:55:14;100883.89;;;9.14;84.93
18755;BME280;35061;47.664;9.166;2024-03-23T02:57:41;100871.50;;;9.17;84.74
18755;BME280;35061;47.664;9.166;2024-03-23T03:00:07;100874.84;;;9.16;84.53
18755;BME280;35061;47.664;9.166;2024-03-23T03:02:34;100869.89;;;9.16;84.64
18755;BME280;35061;47.664;9.166;2024-03-23T03:05:00;100867.84;;;9.17;84.73
18755;BME280;35061;47.664;9.166;2024-03-23T03:07:26;100866.27;;;9.16;84.84
18755;BME280;35061;47.664;9.166;2024-03-23T03:09:52;100868.62;;;9.17;84.83
18755;BME280;35061;47.664;9.166;2024-03-23T03:12:18;100856.88;;;9.15;84.98
18755;BME280;35061;47.664;9.166;2024-03-23T03:14:43;100848.84;;;9.14;84.89
18755;BME280;35061;47.664;9.166;2024-03-23T03:17:09;100861.20;;;9.11;85.10
18755;BME280;35061;47.664;9.166;2024-03-23T03:19:35;100856.00;;;9.09;85.16
18755;BME280;35061;47.664;9.166;2024-03-23T03:22:01;100853.61;;;9.07;85.32
18755;BME280;35061;47.664;9.166;2024-03-23T03:24:27;100857.24;;;9.08;85.40
18755;BME280;35061;47.664;9.166;2024-03-23T03:26:53;100852.79;;;9.07;85.63
18755;BME280;35061;47.664;9.166;2024-03-23T03:29:18;100845.99;;;9.04;85.68
18755;BME280;35061;47.664;9.166;2024-03-23T03:31:45;100853.28;;;9.05;85.68
18755;BME280;35061;47.664;9.166;2024-03-23T03:34:10;100863.91;;;9.05;85.93
18755;BME280;35061;47.664;9.166;2024-03-23T03:36:36;100868.06;;;9.04;86.14
18755;BME280;35061;47.664;9.166;2024-03-23T03:39:02;100867.28;;;9.03;88.80
18755;BME280;35061;47.664;9.166;2024-03-23T03:41:29;100872.18;;;9.03;87.43
18755;BME280;35061;47.664;9.166;2024-03-23T03:43:55;100876.63;;;9.04;86.78
18755;BME280;35061;47.664;9.166;2024-03-23T03:46:21;100864.73;;;9.05;87.52
18755;BME280;35061;47.664;9.166;2024-03-23T03:48:47;100870.74;;;9.07;87.13
18755;BME280;35061;47.664;9.166;2024-03-23T03:51:14;100872.31;;;9.08;87.00
18755;BME280;35061;47.664;9.166;2024-03-23T03:53:40;100866.13;;;9.10;86.87
18755;BME280;35061;47.664;9.166;2024-03-23T03:56:06;100870.05;;;9.13;86.99
18755;BME280;35061;47.664;9.166;2024-03-23T03:58:32;100854.69;;;9.10;86.52
18755;BME280;35061;47.664;9.166;2024-03-23T04:00:58;100856.91;;;9.06;86.65
18755;BME280;35061;47.664;9.166;2024-03-23T04:03:24;100860.58;;;9.06;86.52
18755;BME280;35061;47.664;9.166;2024-03-23T04:05:53;100851.23;;;9.06;86.46
18755;BME280;35061;47.664;9.166;2024-03-23T04:08:20;100836.02;;;9.00;86.35
18755;BME280;35061;47.664;9.166;2024-03-23T04:10:46;100833.34;;;8.96;86.32
18755;BME280;35061;47.664;9.166;2024-03-23T04:13:13;100824.93;;;8.92;86.26
18755;BME280;35061;47.664;9.166;2024-03-23T04:15:39;100819.90;;;8.87;86.50
18755;BME280;35061;47.664;9.166;2024-03-23T04:18:05;100812.08;;;8.88;86.64
18755;BME280;35061;47.664;9.166;2024-03-23T04:20:32;100810.97;;;8.85;86.50
18755;BME280;35061;47.664;9.166;2024-03-23T04:22:58;100797.98;;;8.84;86.95
18755;BME280;35061;47.664;9.166;2024-03-23T04:25:24;100797.50;;;8.86;86.93
18755;BME280;35061;47.664;9.166;2024-03-23T04:27:50;100788.14;;;8.85;86.92
18755;BME280;35061;47.664;9.166;2024-03-23T04:30:17;100789.71;;;8.86;86.81
18755;BME280;35061;47.664;9.166;2024-03-23T04:32:43;100786.87;;;8.86;87.04
18755;BME280;35061;47.664;9.166;2024-03-23T04:35:09;100788.14;;;8.85;87.10
18755;BME280;35061;47.664;9.166;2024-03-23T04:37:38;100785.59;;;8.87;87.11
18755;BME280;35061;47.664;9.166;2024-03-23T04:40:07;100786.67;;;8.90;87.38
18755;BME280;35061;47.664;9.166;2024-03-23T04:42:33;100773.98;;;8.91;87.92
18755;BME280;35061;47.664;9.166;2024-03-23T04:45:00;100763.36;;;8.91;87.52
18755;BME280;35061;47.664;9.166;2024-03-23T04:47:26;100741.28;;;8.92;87.48
18755;BME280;35061;47.664;9.166;2024-03-23T04:49:52;100724.97;;;8.92;87.37
18755;BME280;35061;47.664;9.166;2024-03-23T04:52:18;100727.35;;;8.94;87.41
18755;BME280;35061;47.664;9.166;2024-03-23T04:54:44;100722.09;;;8.92;87.39
18755;BME280;35061;47.664;9.166;2024-03-23T04:57:11;100711.95;;;8.91;87.38
18755;BME280;35061;47.664;9.166;2024-03-23T04:59:37;100715.29;;;8.90;87.30
18755;BME280;35061;47.664;9.166;2024-03-23T05:02:03;100720.52;;;8.91;87.26
18755;BME280;35061;47.664;9.166;2024-03-23T05:04:28;100705.45;;;8.91;87.21
18755;BME280;35061;47.664;9.166;2024-03-23T05:06:54;100698.97;;;8.90;87.30
18755;BME280;35061;47.664;9.166;2024-03-23T05:09:20;100693.25;;;8.90;87.42
18755;BME280;35061;47.664;9.166;2024-03-23T05:11:47;100699.73;;;8.91;87.49
18755;BME280;35061;47.664;9.166;2024-03-23T05:14:13;100693.54;;;8.92;87.54
18755;BME280;35061;47.664;9.166;2024-03-23T05:16:39;100685.79;;;8.93;87.61
18755;BME280;35061;47.664;9.166;2024-03-23T05:19:05;100691.29;;;8.97;87.61
18755;BME280;35061;47.664;9.166;2024-03-23T05:21:31;100693.48;;;9.02;87.61
18755;BME280;35061;47.664;9.166;2024-03-23T05:23:57;100686.31;;;9.06;87.74
18755;BME280;35061;47.664;9.166;2024-03-23T05:26:23;100683.11;;;9.14;87.49
18755;BME280;35061;47.664;9.166;2024-03-23T05:28:49;100678.27;;;9.20;87.29
18755;BME280;35061;47.664;9.166;2024-03-23T05:31:28;100672.68;;;9.26;87.26
18755;BME280;35061;47.664;9.166;2024-03-23T05:33:54;100669.93;;;9.31;87.54
18755;BME280;35061;47.664;9.166;2024-03-23T05:36:20;100671.83;;;9.34;87.24
18755;BME280;35061;47.664;9.166;2024-03-23T05:38:46;100668.59;;;9.42;87.33
18755;BME280;35061;47.664;9.166;2024-03-23T05:41:12;100694.63;;;9.44;87.02
18755;BME280;35061;47.664;9.166;2024-03-23T05:43:38;100708.26;;;9.49;86.66
18755;BME280;35061;47.664;9.166;2024-03-23T05:46:04;100720.55;;;9.55;86.38
18755;BME280;35061;47.664;9.166;2024-03-23T05:48:36;100743.54;;;9.61;86.08
18755;BME280;35061;47.664;9.166;2024-03-23T05:51:02;100748.41;;;9.70;85.64
18755;BME280;35061;47.664;9.166;2024-03-23T05:53:28;100746.88;;;9.84;85.38
18755;BME280;35061;47.664;9.166;2024-03-23T05:56:02;100759.59;;;9.98;86.09
18755;BME280;35061;47.664;9.166;2024-03-23T05:58:32;100783.50;;;10.10;85.78
18755;BME280;35061;47.664;9.166;2024-03-23T06:00:59;100793.12;;;10.22;86.53
18755;BME280;35061;47.664;9.166;2024-03-23T06:03:29;100797.27;;;10.21;89.51
18755;BME280;35061;47.664;9.166;2024-03-23T06:05:56;100805.84;;;10.21;90.06
18755;BME280;35061;47.664;9.166;2024-03-23T06:08:22;100795.53;;;10.14;90.99
18755;BME280;35061;47.664;9.166;2024-03-23T06:10:49;100782.03;;;10.14;91.75
18755;BME280;35061;47.664;9.166;2024-03-23T06:13:16;100782.95;;;10.21;92.17
18755;BME280;35061;47.664;9.166;2024-03-23T06:15:42;100785.92;;;10.26;92.45
18755;BME280;35061;47.664;9.166;2024-03-23T06:18:08;100798.25;;;10.32;93.13
18755;BME280;35061;47.664;9.166;2024-03-23T06:20:34;100792.63;;;10.38;92.94
18755;BME280;35061;47.664;9.166;2024-03-23T06:23:01;100803.91;;;10.42;94.78
18755;BME280;35061;47.664;9.166;2024-03-23T06:25:27;100802.92;;;10.45;94.89
18755;BME280;35061;47.664;9.166;2024-03-23T06:27:53;100799.27;;;10.44;96.50
18755;BME280;35061;47.664;9.166;2024-03-23T06:30:19;100805.48;;;10.43;96.06
18755;BME280;35061;47.664;9.166;2024-03-23T06:32:45;100827.77;;;10.39;98.57
18755;BME280;35061;47.664;9.166;2024-03-23T06:35:11;100816.20;;;10.33;99.03
18755;BME280;35061;47.664;9.166;2024-03-23T06:37:36;100823.13;;;10.26;99.07
18755;BME280;35061;47.664;9.166;2024-03-23T06:40:05;100822.22;;;10.20;100.00
18755;BME280;35061;47.664;9.166;2024-03-23T06:42:34;100828.62;;;10.15;100.00
18755;BME280;35061;47.664;9.166;2024-03-23T06:45:00;100833.73;;;10.11;98.92
18755;BME280;35061;47.664;9.166;2024-03-23T06:47:26;100850.44;;;10.12;98.39
18755;BME280;35061;47.664;9.166;2024-03-23T06:49:51;100839.65;;;10.07;97.93
18755;BME280;35061;47.664;9.166;2024-03-23T06:52:17;100848.41;;;10.03;96.82
18755;BME280;35061;47.664;9.166;2024-03-23T06:54:43;100844.20;;;9.99;95.51
18755;BME280;35061;47.664;9.166;2024-03-23T06:57:11;100840.98;;;9.97;93.95
18755;BME280;35061;47.664;9.166;2024-03-23T06:59:38;100863.59;;;9.95;92.38
18755;BME280;35061;47.664;9.166;2024-03-23T07:02:05;100852.14;;;9.95;92.40
18755;BME280;35061;47.664;9.166;2024-03-23T07:04:34;100842.27;;;9.96;92.29
18755;BME280;35061;47.664;9.166;2024-03-23T07:07:00;100862.60;;;9.98;92.54
18755;BME280;35061;47.664;9.166;2024-03-23T07:09:28;100848.64;;;10.00;91.91
18755;BME280;35061;47.664;9.166;2024-03-23T07:11:55;100837.49;;;10.02;91.37
18755;BME280;35061;47.664;9.166;2024-03-23T07:14:22;100840.14;;;10.05;90.27
18755;BME280;35061;47.664;9.166;2024-03-23T07:16:49;100844.42;;;10.10;89.21
18755;BME280;35061;47.664;9.166;2024-03-23T07:19:16;100836.12;;;10.12;89.47
18755;BME280;35061;47.664;9.166;2024-03-23T07:21:43;100833.56;;;10.14;88.95
18755;BME280;35061;47.664;9.166;2024-03-23T07:24:09;100848.45;;;10.18;88.47
18755;BME280;35061;47.664;9.166;2024-03-23T07:26:35;100875.29;;;10.21;88.23
18755;BME280;35061;47.664;9.166;2024-03-23T07:29:01;100880.85;;;10.25;87.93
18755;BME280;35061;47.664;9.166;2024-03-23T07:31:27;100886.38;;;10.28;87.52
18755;BME280;35061;47.664;9.166;2024-03-23T07:33:53;100899.42;;;10.29;86.69
18755;BME280;35061;47.664;9.166;2024-03-23T07:36:19;100878.69;;;10.34;86.90
18755;BME280;35061;47.664;9.166;2024-03-23T07:38:45;100877.71;;;10.38;87.31
18755;BME280;35061;47.664;9.166;2024-03-23T07:41:15;100885.79;;;10.39;87.33
18755;BME280;35061;47.664;9.166;2024-03-23T07:43:43;100889.77;;;10.42;87.73
18755;BME280;35061;47.664;9.166;2024-03-23T07:46:09;100916.36;;;10.42;87.54
18755;BME280;35061;47.664;9.166;2024-03-23T07:48:35;100890.76;;;10.39;88.20
18755;BME280;35061;47.664;9.166;2024-03-23T07:51:08;100913.16;;;10.40;88.47
18755;BME280;35061;47.664;9.166;2024-03-23T07:53:35;100911.91;;;10.41;88.72
18755;BME280;35061;47.664;9.166;2024-03-23T07:56:07;100913.52;;;10.42;88.71
18755;BME280;35061;47.664;9.166;2024-03-23T07:58:33;100915.84;;;10.44;88.38
18755;BME280;35061;47.664;9.166;2024-03-23T08:01:06;100917.54;;;10.51;87.51
18755;BME280;35061;47.664;9.166;2024-03-23T08:03:39;100909.79;;;10.66;86.70
18755;BME280;35061;47.664;9.166;2024-03-23T08:06:17;100929.24;;;10.77;85.66
18755;BME280;35061;47.664;9.166;2024-03-23T08:08:44;100938.23;;;10.85;85.41
18755;BME280;35061;47.664;9.166;2024-03-23T08:11:10;100960.84;;;10.83;84.02
18755;BME280;35061;47.664;9.166;2024-03-23T08:13:39;100963.52;;;10.86;84.49
18755;BME280;35061;47.664;9.166;2024-03-23T08:16:06;100969.27;;;10.86;83.69
18755;BME280;35061;47.664;9.166;2024-03-23T08:18:32;100977.84;;;10.86;83.66
18755;BME280;35061;47.664;9.166;2024-03-23T08:21:05;101012.73;;;10.85;83.66
18755;BME280;35061;47.664;9.166;2024-03-23T08:23:33;100990.79;;;10.82;83.84
18755;BME280;35061;47.664;9.166;2024-03-23T08:26:02;101022.18;;;10.76;83.93
18755;BME280;35061;47.664;9.166;2024-03-23T08:28:29;101069.50;;;10.71;84.07
18755;BME280;35061;47.664;9.166;2024-03-23T08:30:56;101067.37;;;10.57;80.58
18755;BME280;35061;47.664;9.166;2024-03-23T08:33:23;101075.45;;;10.34;76.03
18755;BME280;35061;47.664;9.166;2024-03-23T08:35:59;101081.01;;;9.95;75.02
18755;BME280;35061;47.664;9.166;2024-03-23T08:38:26;101104.95;;;9.63;75.92
18755;BME280;35061;47.664;9.166;2024-03-23T08:41:04;101098.96;;;9.33;76.92
18755;BME280;35061;47.664;9.166;2024-03-23T08:43:31;101126.43;;;9.12;78.47
18755;BME280;35061;47.664;9.166;2024-03-23T08:48:31;101143.04;;;8.67;81.68
18755;BME280;35061;47.664;9.166;2024-03-23T08:51:04;101154.26;;;8.52;82.74
18755;BME280;35061;47.664;9.166;2024-03-23T08:53:30;101157.20;;;8.39;84.88
18755;BME280;35061;47.664;9.166;2024-03-23T08:55:57;101153.83;;;8.31;84.95
18755;BME280;35061;47.664;9.166;2024-03-23T08:58:24;101159.48;;;8.22;86.60
18755;BME280;35061;47.664;9.166;2024-03-23T09:00:51;101183.59;;;8.21;86.78
18755;BME280;35061;47.664;9.166;2024-03-23T09:03:17;101170.15;;;8.21;86.63
18755;BME280;35061;47.664;9.166;2024-03-23T09:05:43;101167.73;;;8.20;86.55
18755;BME280;35061;47.664;9.166;2024-03-23T09:08:09;101178.35;;;8.19;85.82
18755;BME280;35061;47.664;9.166;2024-03-23T09:10:38;101188.66;;;8.17;85.81
18755;BME280;35061;47.664;9.166;2024-03-23T09:13:04;101192.29;;;8.17;85.19
18755;BME280;35061;47.664;9.166;2024-03-23T09:15:30;101206.90;;;8.19;84.94
18755;BME280;35061;47.664;9.166;2024-03-23T09:17:59;101223.68;;;8.17;84.05
18755;BME280;35061;47.664;9.166;2024-03-23T09:20:25;101219.23;;;8.16;82.83
18755;BME280;35061;47.664;9.166;2024-03-23T09:22:51;101226.52;;;8.17;83.70
18755;BME280;35061;47.664;9.166;2024-03-23T09:25:17;101203.50;;;8.12;82.74
18755;BME280;35061;47.664;9.166;2024-03-23T09:27:46;101207.16;;;8.12;82.21
18755;BME280;35061;47.664;9.166;2024-03-23T09:30:12;101205.13;;;8.13;81.85
18755;BME280;35061;47.664;9.166;2024-03-23T09:32:39;101186.76;;;8.14;81.89
18755;BME280;35061;47.664;9.166;2024-03-23T09:35:05;101198.79;;;8.18;81.99
18755;BME280;35061;47.664;9.166;2024-03-23T09:37:30;101207.23;;;8.21;81.77
18755;BME280;35061;47.664;9.166;2024-03-23T09:39:56;101225.31;;;8.28;81.23
18755;BME280;35061;47.664;9.166;2024-03-23T09:42:22;101229.79;;;8.29;80.90
18755;BME280;35061;47.664;9.166;2024-03-23T09:44:48;101229.79;;;8.29;80.13
18755;BME280;35061;47.664;9.166;2024-03-23T09:47:16;101240.71;;;8.30;79.39
18755;BME280;35061;47.664;9.166;2024-03-23T09:49:43;101254.02;;;8.33;79.48
18755;BME280;35061;47.664;9.166;2024-03-23T09:52:09;101246.93;;;8.38;79.72
18755;BME280;35061;47.664;9.166;2024-03-23T09:54:36;101257.42;;;8.41;79.79
18755;BME280;35061;47.664;9.166;2024-03-23T09:57:01;101258.73;;;8.49;79.83
18755;BME280;35061;47.664;9.166;2024-03-23T09:59:29;101258.14;;;8.55;78.89
18755;BME280;35061;47.664;9.166;2024-03-23T10:01:55;101247.38;;;8.59;77.82
18755;BME280;35061;47.664;9.166;2024-03-23T10:04:38;101256.61;;;8.63;77.04
18755;BME280;35061;47.664;9.166;2024-03-23T10:07:11;101263.27;;;8.69;75.93
18755;BME280;35061;47.664;9.166;2024-03-23T10:09:37;101266.12;;;8.69;74.12
18755;BME280;35061;47.664;9.166;2024-03-23T10:12:14;101266.81;;;8.73;74.82
18755;BME280;35061;47.664;9.166;2024-03-23T10:14:40;101252.03;;;8.75;74.69
18755;BME280;35061;47.664;9.166;2024-03-23T10:17:20;101251.24;;;8.74;74.34
18755;BME280;35061;47.664;9.166;2024-03-23T10:19:51;101263.64;;;8.80;73.47
18755;BME280;35061;47.664;9.166;2024-03-23T10:22:21;101260.79;;;8.80;72.19
18755;BME280;35061;47.664;9.166;2024-03-23T10:24:48;101278.71;;;8.81;70.94
18755;BME280;35061;47.664;9.166;2024-03-23T10:27:18;101261.91;;;8.83;71.34
18755;BME280;35061;47.664;9.166;2024-03-23T10:29:45;101252.39;;;8.86;71.45
18755;BME280;35061;47.664;9.166;2024-03-23T10:32:13;101262.88;;;8.89;70.93
18755;BME280;35061;47.664;9.166;2024-03-23T10:34:40;101280.02;;;8.89;69.35
18755;BME280;35061;47.664;9.166;2024-03-23T10:37:06;101269.39;;;8.90;69.93
18755;BME280;35061;47.664;9.166;2024-03-23T10:39:34;101277.50;;;8.91;69.75
18755;BME280;35061;47.664;9.166;2024-03-23T10:42:09;101289.90;;;8.98;69.97
18755;BME280;35061;47.664;9.166;2024-03-23T10:44:38;101287.70;;;9.02;69.12
18755;BME280;35061;47.664;9.166;2024-03-23T10:47:05;101289.14;;;9.06;69.99
18755;BME280;35061;47.664;9.166;2024-03-23T10:49:31;101291.37;;;9.12;70.34
18755;BME280;35061;47.664;9.166;2024-03-23T10:52:04;101286.49;;;9.21;70.88
18755;BME280;35061;47.664;9.166;2024-03-23T10:54:31;101279.04;;;9.24;70.38
18755;BME280;35061;47.664;9.166;2024-03-23T10:57:08;101269.82;;;9.29;71.27
18755;BME280;35061;47.664;9.166;2024-03-23T10:59:37;101271.09;;;9.38;71.21
18755;BME280;35061;47.664;9.166;2024-03-23T11:02:03;101262.03;;;9.39;69.43
18755;BME280;35061;47.664;9.166;2024-03-23T11:04:30;101254.28;;;9.40;69.14
18755;BME280;35061;47.664;9.166;2024-03-23T11:06:57;101257.91;;;9.49;69.55
18755;BME280;35061;47.664;9.166;2024-03-23T11:14:45;101242.68;;;9.71;67.26
18755;BME280;35061;47.664;9.166;2024-03-23T11:17:12;101246.34;;;9.90;65.58
18755;BME280;35061;47.664;9.166;2024-03-23T11:19:43;101253.63;;;10.10;66.02
18755;BME280;35061;47.664;9.166;2024-03-23T11:22:09;101245.78;;;10.29;62.67
18755;BME280;35061;47.664;9.166;2024-03-23T11:24:34;101234.93;;;10.52;63.60
18755;BME280;35061;47.664;9.166;2024-03-23T11:27:00;101242.94;;;10.72;60.32
18755;BME280;35061;47.664;9.166;2024-03-23T11:29:29;101240.35;;;10.84;58.57
18755;BME280;35061;47.664;9.166;2024-03-23T11:31:55;101241.11;;;10.94;56.07
18755;BME280;35061;47.664;9.166;2024-03-23T11:34:22;101238.39;;;10.90;55.81
18755;BME280;35061;47.664;9.166;2024-03-23T11:36:48;101225.34;;;10.89;55.33
18755;BME280;35061;47.664;9.166;2024-03-23T11:39:19;101218.05;;;10.88;55.35
18755;BME280;35061;47.664;9.166;2024-03-23T11:41:51;101212.30;;;10.88;55.51
18755;BME280;35061;47.664;9.166;2024-03-23T11:44:21;101225.54;;;10.85;53.25
18755;BME280;35061;47.664;9.166;2024-03-23T11:46:51;101219.20;;;10.81;52.20
18755;BME280;35061;47.664;9.166;2024-03-23T11:51:49;101199.28;;;10.87;51.25
18755;BME280;35061;47.664;9.166;2024-03-23T11:54:15;101205.98;;;10.84;50.46
18755;BME280;35061;47.664;9.166;2024-03-23T11:56:41;101216.94;;;10.85;50.52
18755;BME280;35061;47.664;9.166;2024-03-23T11:59:32;101207.55;;;10.85;49.28
18755;BME280;35061;47.664;9.166;2024-03-23T12:01:58;101199.02;;;10.75;48.17
18755;BME280;35061;47.664;9.166;2024-03-23T12:04:29;101197.55;;;10.80;49.92
18755;BME280;35061;47.664;9.166;2024-03-23T12:07:16;101207.85;;;10.87;49.95
18755;BME280;35061;47.664;9.166;2024-03-23T12:09:45;101218.05;;;10.88;49.31
18755;BME280;35061;47.664;9.166;2024-03-23T12:12:15;101201.44;;;10.92;50.39
18755;BME280;35061;47.664;9.166;2024-03-23T12:14:45;101196.34;;;10.96;49.55
18755;BME280;35061;47.664;9.166;2024-03-23T12:17:15;101186.34;;;10.92;48.52
18755;BME280;35061;47.664;9.166;2024-03-23T12:19:42;101203.53;;;10.92;47.23
18755;BME280;35061;47.664;9.166;2024-03-23T12:22:08;101214.49;;;10.93;47.74
18755;BME280;35061;47.664;9.166;2024-03-23T12:24:35;101195.72;;;10.92;48.34
18755;BME280;35061;47.664;9.166;2024-03-23T12:27:02;101199.80;;;11.00;49.12
18755;BME280;35061;47.664;9.166;2024-03-23T12:29:29;101208.60;;;10.97;48.09
18755;BME280;35061;47.664;9.166;2024-03-23T12:31:59;101190.03;;;10.83;46.82
18755;BME280;35061;47.664;9.166;2024-03-23T12:34:25;101201.21;;;10.81;47.75
18755;BME280;35061;47.664;9.166;2024-03-23T12:36:51;101198.34;;;10.81;48.23
18755;BME280;35061;47.664;9.166;2024-03-23T12:39:17;101200.27;;;10.84;47.74
18755;BME280;35061;47.664;9.166;2024-03-23T12:41:44;101207.20;;;10.92;48.60
18755;BME280;35061;47.664;9.166;2024-03-23T12:44:09;101201.41;;;11.01;48.62
18755;BME280;35061;47.664;9.166;2024-03-23T12:46:37;101194.25;;;10.97;49.00
18755;BME280;35061;47.664;9.166;2024-03-23T12:49:04;101221.95;;;10.75;48.65
18755;BME280;35061;47.664;9.166;2024-03-23T12:51:31;101220.90;;;10.54;51.56
18755;BME280;35061;47.664;9.166;2024-03-23T12:53:58;101249.91;;;10.47;53.55
18755;BME280;35061;47.664;9.166;2024-03-23T12:56:24;101252.95;;;10.25;54.54
18755;BME280;35061;47.664;9.166;2024-03-23T12:58:50;101259.06;;;9.99;55.42
18755;BME280;35061;47.664;9.166;2024-03-23T13:01:21;101267.63;;;9.89;56.54
18755;BME280;35061;47.664;9.166;2024-03-23T13:03:47;101253.50;;;9.76;55.79
18755;BME280;35061;47.664;9.166;2024-03-23T13:06:13;101267.01;;;9.67;55.85
18755;BME280;35061;47.664;9.166;2024-03-23T13:08:39;101252.72;;;9.57;55.49
18755;BME280;35061;47.664;9.166;2024-03-23T13:11:07;101271.75;;;9.42;54.48
18755;BME280;35061;47.664;9.166;2024-03-23T13:13:37;101267.92;;;9.26;54.06
18755;BME280;35061;47.664;9.166;2024-03-23T13:16:04;101264.06;;;9.20;53.95
18755;BME280;35061;47.664;9.166;2024-03-23T13:18:31;101240.42;;;9.10;53.49
18755;BME280;35061;47.664;9.166;2024-03-23T13:20:58;101258.83;;;9.09;53.32
18755;BME280;35061;47.664;9.166;2024-03-23T13:23:25;101265.96;;;9.04;53.27
18755;BME280;35061;47.664;9.166;2024-03-23T13:25:52;101259.26;;;8.98;53.61
18755;BME280;35061;47.664;9.166;2024-03-23T13:28:21;101246.24;;;8.97;53.58
18755;BME280;35061;47.664;9.166;2024-03-23T13:30:55;101244.67;;;8.96;54.34
18755;BME280;35061;47.664;9.166;2024-03-23T13:33:21;101219.55;;;8.91;54.53
18755;BME280;35061;47.664;9.166;2024-03-23T13:38:17;101217.04;;;8.93;54.95
18755;BME280;35061;47.664;9.166;2024-03-23T13:41:08;101236.86;;;8.87;54.71
18755;BME280;35061;47.664;9.166;2024-03-23T13:43:38;101234.93;;;8.84;55.17
18755;BME280;35061;47.664;9.166;2024-03-23T13:46:04;101233.20;;;8.87;56.17
18755;BME280;35061;47.664;9.166;2024-03-23T13:48:29;101210.83;;;8.85;56.00
18755;BME280;35061;47.664;9.166;2024-03-23T13:51:03;101212.76;;;8.88;55.59
18755;BME280;35061;47.664;9.166;2024-03-23T13:53:30;101216.38;;;8.89;55.65
18755;BME280;35061;47.664;9.166;2024-03-23T13:55:56;101213.54;;;8.89;54.70
18755;BME280;35061;47.664;9.166;2024-03-23T13:58:22;101173.09;;;8.90;54.21
18755;BME280;35061;47.664;9.166;2024-03-23T14:00:51;101197.52;;;8.91;54.13
18755;BME280;35061;47.664;9.166;2024-03-23T14:03:17;101199.91;;;8.93;54.45